createdAt,value
2018-09-25T14:19:48.846Z,25.15
2018-09-25T14:20:48.032Z,25.20
2018-09-25T14:21:50.507Z,25.55
2018-09-25T14:22:49.948Z,25.73
2018-09-25T14:23:49.872Z,25.67
2018-09-25T14:24:50.779Z,25.53
2018-09-25T14:25:50.934Z,25.58
2018-09-25T14:26:51.552Z,25.43
2018-09-25T14:27:51.921Z,25.45
2018-09-25T14:28:54.758Z,25.56
2018-09-25T14:29:51.669Z,26.38
2018-09-25T14:30:52.604Z,28.14
2018-09-25T14:31:53.024Z,29.28
2018-09-25T14:32:52.798Z,30.21
2018-09-25T14:33:53.437Z,31.01
2018-09-25T14:34:53.964Z,31.35
2018-09-25T14:35:53.457Z,31.78
2018-09-25T14:36:54.277Z,32.13
2018-09-25T14:37:54.697Z,32.36
2018-09-25T14:38:54.401Z,32.59
2018-09-25T14:39:55.417Z,32.94
2018-09-25T14:40:55.197Z,33.03
2018-09-25T14:41:54.551Z,32.71
2018-09-25T14:42:55.848Z,31.78
2018-09-25T14:43:56.092Z,31.71
2018-09-25T14:44:55.646Z,31.45
2018-09-25T14:45:56.263Z,31.66
2018-09-25T14:46:56.695Z,31.91
2018-09-25T14:47:56.071Z,33.08
2018-09-25T14:48:56.708Z,33.83
2018-09-25T14:49:57.017Z,34.26
2018-09-25T14:50:56.551Z,34.50
2018-09-25T14:51:58.402Z,34.66
2018-09-25T14:52:58.164Z,35.00
2018-09-25T14:53:57.590Z,35.17
2018-09-25T14:54:59.202Z,35.67
2018-09-25T14:55:59.013Z,35.95
2018-09-25T14:56:58.326Z,36.08
2018-09-25T14:57:59.836Z,35.89
2018-09-25T14:59:00.051Z,35.99
2018-09-25T14:59:59.178Z,35.98
2018-09-25T15:01:00.792Z,35.96
2018-09-25T15:02:00.683Z,35.81
2018-09-25T15:02:59.687Z,34.57
2018-09-25T15:04:00.998Z,33.06
2018-09-25T15:05:01.710Z,32.23
2018-09-25T15:06:00.578Z,31.64
2018-09-25T15:07:02.178Z,31.48
2018-09-25T15:08:01.949Z,31.21
2018-09-25T15:09:01.124Z,31.19
2018-09-25T15:10:02.494Z,30.58
2018-09-25T15:11:02.687Z,30.33
2018-09-25T15:12:02.642Z,30.18
2018-09-25T15:13:03.826Z,30.02
2018-09-25T15:14:03.729Z,29.90
2018-09-25T15:15:03.838Z,29.78
2018-09-25T15:16:04.459Z,29.46
2018-09-25T15:17:04.381Z,29.06
2018-09-25T15:18:04.882Z,28.74
2018-09-25T15:19:04.894Z,28.62
2018-09-25T15:20:05.428Z,28.42
2018-09-25T15:21:05.307Z,28.26
2018-09-25T15:22:05.944Z,28.30
2018-09-25T15:23:06.044Z,28.09
2018-09-25T15:24:06.357Z,27.98
2018-09-25T15:25:06.874Z,27.89
2018-09-25T15:26:06.883Z,27.95
2018-09-25T15:27:06.590Z,28.01
2018-09-25T15:28:07.201Z,28.14
2018-09-25T15:29:07.197Z,28.20
2018-09-25T15:30:07.426Z,28.08
2018-09-25T15:31:07.629Z,27.84
2018-09-25T15:32:08.161Z,27.73
2018-09-25T15:33:07.952Z,27.60
2018-09-25T15:34:08.677Z,27.46
2018-09-25T15:35:08.852Z,27.16
2018-09-25T15:36:09.617Z,26.86
2018-09-25T15:37:08.901Z,26.75
2018-09-25T15:38:09.209Z,27.07
2018-09-25T15:39:09.529Z,27.14
2018-09-25T15:40:10.151Z,27.08
2018-09-25T15:41:10.060Z,27.03
2018-09-25T15:42:10.316Z,27.32
2018-09-25T15:43:10.906Z,27.94
2018-09-25T15:45:10.792Z,28.09
2018-09-25T15:46:11.219Z,28.50
2018-09-25T15:47:11.625Z,28.62
2018-09-25T15:48:11.427Z,28.64
2018-09-25T15:49:11.791Z,29.09
2018-09-25T15:50:11.443Z,29.17
2018-09-25T15:51:12.179Z,29.33
2018-09-25T15:52:12.581Z,29.39
2018-09-25T15:53:12.076Z,29.92
2018-09-25T15:54:14.436Z,30.45
2018-09-25T15:55:14.133Z,31.19
2018-09-25T15:56:13.449Z,31.81
2018-09-25T15:57:14.077Z,32.13
2018-09-25T15:58:14.311Z,32.32
2018-09-25T15:59:13.956Z,32.60
2018-09-25T16:00:14.720Z,32.53
2018-09-25T16:01:15.105Z,32.62
2018-09-25T16:02:14.123Z,32.76
2018-09-25T16:03:15.517Z,32.72
2018-09-25T16:04:15.659Z,32.88
2018-09-25T16:05:15.212Z,33.44
2018-09-25T16:06:15.860Z,34.14
2018-09-25T16:07:16.260Z,34.82
2018-09-25T16:08:15.653Z,34.91
2018-09-25T16:09:16.820Z,34.19
2018-09-25T16:10:17.405Z,33.57
2018-09-25T16:11:17.527Z,33.32
2018-09-25T16:12:17.319Z,33.32
2018-09-25T16:13:17.750Z,33.41
2018-09-25T16:14:17.640Z,33.63
2018-09-25T16:15:18.471Z,33.65
2018-09-25T16:16:18.791Z,33.89
2018-09-25T16:17:18.480Z,33.64
2018-09-25T16:18:19.318Z,33.66
2018-09-25T16:19:19.847Z,33.17
2018-09-25T16:20:19.215Z,33.04
2018-09-25T16:21:20.152Z,32.93
2018-09-25T16:22:20.658Z,32.91
2018-09-25T16:23:20.256Z,32.82
2018-09-25T16:24:20.572Z,32.91
2018-09-25T16:25:21.258Z,33.16
2018-09-25T16:26:20.696Z,33.58
2018-09-25T16:27:21.102Z,34.18
2018-09-25T16:28:21.828Z,34.57
2018-09-25T16:29:21.421Z,35.25
2018-09-25T16:30:21.942Z,35.86
2018-09-25T16:31:21.844Z,36.22
2018-09-25T16:32:21.619Z,36.37
2018-09-25T16:33:22.575Z,36.57
2018-09-25T16:34:22.480Z,36.79
2018-09-25T16:35:22.392Z,36.99
2018-09-25T16:36:23.414Z,37.15
2018-09-25T16:37:23.429Z,37.38
2018-09-25T16:38:23.427Z,37.44
2018-09-25T16:39:24.355Z,37.79
2018-09-25T16:40:24.919Z,38.04
2018-09-25T16:41:24.022Z,38.23
2018-09-25T16:42:25.408Z,38.54
2018-09-25T16:43:25.355Z,38.66
2018-09-25T16:44:25.430Z,39.05
2018-09-25T16:45:25.857Z,39.33
2018-09-25T16:47:25.670Z,39.62
2018-09-25T16:48:27.082Z,40.08
2018-09-25T16:49:26.985Z,40.17
2018-09-25T16:50:25.975Z,40.49
2018-09-25T16:51:28.019Z,40.88
2018-09-25T16:52:27.838Z,41.01
2018-09-25T16:53:27.520Z,40.93
2018-09-25T16:54:28.415Z,40.94
2018-09-25T16:55:29.075Z,41.26
2018-09-25T16:56:28.280Z,41.18
2018-09-25T16:57:29.331Z,41.37
2018-09-25T16:58:29.598Z,41.52
2018-09-25T16:59:28.964Z,41.65
2018-09-25T17:00:29.717Z,41.80
2018-09-25T17:01:30.131Z,42.04
2018-09-25T17:02:29.943Z,42.15
2018-09-25T17:03:30.761Z,42.21
2018-09-25T17:04:30.967Z,42.37
2018-09-25T17:05:31.079Z,42.49
2018-09-25T17:06:31.294Z,42.57
2018-09-25T17:07:31.821Z,42.83
2018-09-25T17:08:31.267Z,42.93
2018-09-25T17:09:32.026Z,43.19
2018-09-25T17:10:32.239Z,43.34
2018-09-25T17:11:31.628Z,43.49
2018-09-25T17:12:32.877Z,43.75
2018-09-25T17:13:33.304Z,44.06
2018-09-25T17:14:32.778Z,44.26
2018-09-25T17:15:34.114Z,44.42
2018-09-25T17:16:34.835Z,44.65
2018-09-25T17:17:34.339Z,45.08
2018-09-25T17:18:34.650Z,45.13
2018-09-25T17:19:35.263Z,45.25
2018-09-25T17:20:34.556Z,45.58
2018-09-25T17:21:35.589Z,45.85
2018-09-25T17:22:35.707Z,46.50
2018-09-25T17:23:35.087Z,46.82
2018-09-25T17:24:36.065Z,47.17
2018-09-25T17:25:36.431Z,47.51
2018-09-25T17:26:36.290Z,47.90
2018-09-25T17:27:37.070Z,48.19
2018-09-25T17:28:37.577Z,48.38
2018-09-25T17:29:37.580Z,48.58
2018-09-25T17:30:38.513Z,49.00
2018-09-25T17:31:39.237Z,49.27
2018-09-25T17:32:38.646Z,49.58
2018-09-25T17:33:39.470Z,49.81
2018-09-25T17:34:40.209Z,49.93
2018-09-25T17:35:39.158Z,49.88
2018-09-25T17:36:40.703Z,50.05
2018-09-25T17:37:40.672Z,50.09
2018-09-25T17:38:40.314Z,50.33
2018-09-25T17:39:41.338Z,49.87
2018-09-25T17:40:41.360Z,49.77
2018-09-25T17:41:40.772Z,49.69
2018-09-25T17:42:41.866Z,49.46
2018-09-25T17:43:41.825Z,49.36
2018-09-25T17:44:41.257Z,49.29
2018-09-25T17:45:42.401Z,48.99
2018-09-25T17:46:42.714Z,49.01
2018-09-25T17:47:42.296Z,48.90
2018-09-25T17:48:43.046Z,48.82
2018-09-25T17:49:43.348Z,48.82
2018-09-25T17:50:42.811Z,48.92
2018-09-25T17:51:44.079Z,48.87
2018-09-25T17:52:44.502Z,48.98
2018-09-25T17:53:44.099Z,49.07
2018-09-25T17:54:45.325Z,49.22
2018-09-25T17:55:45.331Z,49.32
2018-09-25T17:56:44.313Z,49.34
2018-09-25T17:58:45.669Z,49.35
2018-09-25T17:59:45.255Z,49.51
2018-09-25T18:00:46.082Z,49.73
2018-09-25T18:01:46.460Z,49.80
2018-09-25T18:02:45.686Z,50.07
2018-09-25T18:03:47.138Z,50.24
2018-09-25T18:04:47.649Z,50.38
2018-09-25T18:05:46.525Z,50.55
2018-09-25T18:06:48.070Z,50.76
2018-09-25T18:07:47.872Z,50.76
2018-09-25T18:08:47.065Z,51.00
2018-09-25T18:09:48.291Z,51.06
2018-09-25T18:10:48.604Z,51.46
2018-09-25T18:11:48.302Z,51.37
2018-09-25T18:12:49.243Z,51.49
2018-09-25T18:13:49.556Z,51.64
2018-09-25T18:14:49.572Z,51.66
2018-09-25T18:15:50.377Z,51.99
2018-09-25T18:16:50.597Z,52.09
2018-09-25T18:17:50.609Z,52.33
2018-09-25T18:18:51.126Z,52.29
2018-09-25T18:19:51.430Z,52.57
2018-09-25T18:20:51.640Z,52.72
2018-09-25T18:21:51.874Z,52.94
2018-09-25T18:22:51.880Z,53.11
2018-09-25T18:23:51.979Z,53.05
2018-09-25T18:24:52.402Z,53.26
2018-09-25T18:25:52.803Z,53.47
2018-09-25T18:26:52.575Z,53.41
2018-09-25T18:27:53.745Z,53.32
2018-09-25T18:28:53.514Z,53.37
2018-09-25T18:29:52.779Z,53.43
2018-09-25T18:30:53.857Z,53.40
2018-09-25T18:31:53.862Z,53.39
2018-09-25T18:32:53.046Z,53.42
2018-09-25T18:33:54.089Z,53.55
2018-09-25T18:34:53.807Z,53.51
2018-09-25T18:35:53.107Z,53.49
2018-09-25T18:36:54.409Z,53.67
2018-09-25T18:37:54.784Z,53.62
2018-09-25T18:38:54.212Z,53.72
2018-09-25T18:39:55.452Z,53.65
2018-09-25T18:40:55.967Z,53.87
2018-09-25T18:41:54.938Z,53.95
2018-09-25T18:42:56.173Z,54.14
2018-09-25T18:43:56.513Z,54.36
2018-09-25T18:44:55.817Z,54.37
2018-09-25T18:45:57.125Z,54.77
2018-09-25T18:46:57.340Z,55.12
2018-09-25T18:47:56.348Z,55.44
2018-09-25T18:48:57.760Z,55.85
2018-09-25T18:49:57.974Z,56.43
2018-09-25T18:50:56.999Z,56.85
2018-09-25T18:51:58.292Z,57.19
2018-09-25T18:52:58.707Z,58.05
2018-09-25T18:53:58.431Z,58.13
2018-09-25T18:54:59.233Z,58.38
2018-09-25T18:55:59.553Z,58.73
2018-09-25T18:56:58.557Z,59.14
2018-09-25T18:58:00.185Z,59.49
2018-09-25T18:58:59.989Z,60.09
2018-09-25T18:59:59.034Z,60.44
2018-09-25T19:01:00.513Z,60.90
2018-09-25T19:02:00.713Z,61.08
2018-09-25T19:02:59.731Z,61.42
2018-09-25T19:04:01.136Z,61.56
2018-09-25T19:05:01.519Z,61.69
2018-09-25T19:06:00.608Z,61.93
2018-09-25T19:07:01.869Z,62.05
2018-09-25T19:08:02.490Z,62.16
2018-09-25T19:09:01.679Z,62.34
2018-09-25T19:10:03.017Z,62.51
2018-09-25T19:11:02.937Z,62.71
2018-09-25T19:12:02.519Z,62.61
2018-09-25T19:13:03.548Z,62.90
2018-09-25T19:14:03.558Z,62.94
2018-09-25T19:15:02.641Z,63.09
2018-09-25T19:16:03.682Z,63.29
2018-09-25T19:17:03.678Z,63.57
2018-09-25T19:18:03.688Z,63.67
2018-09-25T19:19:04.115Z,63.84
2018-09-25T19:20:04.859Z,64.08
2018-09-25T19:21:04.739Z,64.26
2018-09-25T19:22:05.451Z,64.49
2018-09-25T19:24:05.262Z,64.92
2018-09-25T19:25:05.779Z,64.97
2018-09-25T19:26:05.794Z,65.23
2018-09-25T19:27:05.484Z,65.41
2018-09-25T19:28:06.162Z,65.42
2018-09-25T19:29:06.072Z,65.60
2018-09-25T19:30:06.321Z,65.78
2018-09-25T19:31:07.056Z,66.01
2018-09-25T19:32:07.059Z,66.17
2018-09-25T19:33:07.391Z,66.42
2018-09-25T19:34:08.295Z,66.63
2018-09-25T19:35:08.302Z,66.97
2018-09-25T19:36:08.118Z,67.32
2018-09-25T19:37:08.616Z,67.72
2018-09-25T19:38:08.730Z,67.90
2018-09-25T19:39:08.432Z,68.15
2018-09-25T19:40:09.257Z,68.50
2018-09-25T19:41:09.580Z,69.14
2018-09-25T19:42:09.373Z,69.39
2018-09-25T19:43:09.891Z,69.57
2018-09-25T19:44:09.901Z,69.77
2018-09-25T19:45:09.803Z,70.06
2018-09-25T19:46:10.327Z,70.11
2018-09-25T19:47:10.021Z,70.20
2018-09-25T19:48:10.128Z,70.44
2018-09-25T19:49:10.348Z,70.52
2018-09-25T19:50:09.688Z,70.63
2018-09-25T19:51:10.927Z,71.01
2018-09-25T19:52:11.442Z,71.07
2018-09-25T19:53:11.754Z,71.29
2018-09-25T19:54:13.033Z,71.60
2018-09-25T19:55:12.402Z,71.93
2018-09-25T19:56:12.189Z,72.26
2018-09-25T19:57:12.858Z,72.43
2018-09-25T19:58:13.291Z,72.81
2018-09-25T19:59:12.514Z,73.12
2018-09-25T20:00:14.533Z,73.37
2018-09-25T20:01:14.102Z,73.67
2018-09-25T20:02:13.280Z,74.00
2018-09-25T20:03:14.017Z,74.33
2018-09-25T20:04:14.837Z,74.67
2018-09-25T20:05:13.729Z,75.12
2018-09-25T20:06:15.363Z,75.37
2018-09-25T20:07:15.192Z,76.07
2018-09-25T20:08:15.377Z,76.57
2018-09-25T20:09:15.794Z,77.03
2018-09-25T20:10:16.440Z,77.25
2018-09-25T20:11:14.991Z,77.52
2018-09-25T20:12:16.268Z,77.64
2018-09-25T20:13:16.423Z,77.97
2018-09-25T20:14:15.362Z,78.17
2018-09-25T20:15:17.167Z,78.33
2018-09-25T20:16:17.492Z,78.54
2018-09-25T20:17:17.900Z,78.75
2018-09-25T20:18:18.216Z,78.96
2018-09-25T20:19:18.634Z,79.09
2018-09-25T20:20:18.429Z,79.42
2018-09-25T20:21:19.465Z,79.61
2018-09-25T20:22:19.257Z,79.68
2018-09-25T20:23:19.198Z,79.87
2018-09-25T20:24:20.191Z,80.12
2018-09-25T20:25:20.711Z,80.34
2018-09-25T20:26:20.428Z,80.58
2018-09-25T20:27:20.724Z,80.74
2018-09-25T20:28:21.140Z,80.92
2018-09-25T20:29:21.168Z,81.10
2018-09-25T20:30:22.178Z,81.27
2018-09-25T20:31:22.090Z,81.43
2018-09-25T20:32:22.003Z,81.61
2018-09-25T20:33:23.120Z,81.86
2018-09-25T20:34:23.131Z,82.21
2018-09-25T20:35:23.235Z,82.58
2018-09-25T20:36:23.961Z,82.86
2018-09-25T20:37:24.038Z,83.11
2018-09-25T20:38:23.367Z,83.28
2018-09-25T20:39:24.489Z,83.48
2018-09-25T20:40:24.804Z,83.58
2018-09-25T20:41:24.014Z,83.91
2018-09-25T20:42:25.328Z,84.37
2018-09-25T20:43:25.335Z,84.68
2018-09-25T20:44:24.917Z,84.93
2018-09-25T20:45:25.348Z,85.11
2018-09-25T20:46:25.882Z,85.26
2018-09-25T20:47:25.358Z,85.38
2018-09-25T20:48:26.454Z,85.47
2018-09-25T20:49:26.398Z,85.63
2018-09-25T20:50:25.374Z,85.87
2018-09-25T20:51:27.339Z,86.24
2018-09-25T20:52:27.794Z,86.52
2018-09-25T20:53:26.939Z,86.33
2018-09-25T20:55:27.893Z,86.03
2018-09-25T20:56:27.569Z,85.65
2018-09-25T20:57:28.405Z,85.56
2018-09-25T20:58:28.812Z,85.81
2018-09-25T20:59:28.513Z,85.94
2018-09-25T21:00:30.623Z,85.92
2018-09-25T21:01:29.639Z,85.88
2018-09-25T21:02:29.028Z,86.22
2018-09-25T21:03:30.074Z,87.18
2018-09-25T21:04:30.387Z,87.66
2018-09-25T21:06:30.513Z,88.01
2018-09-25T21:07:30.544Z,88.80
2018-09-25T21:08:29.496Z,88.94
2018-09-25T21:09:30.829Z,89.27
2018-09-25T21:10:31.245Z,89.57
2018-09-25T21:11:30.945Z,90.01
2018-09-25T21:12:31.883Z,90.38
2018-09-25T21:13:32.322Z,90.75
2018-09-25T21:14:31.406Z,91.05
2018-09-25T21:15:33.578Z,91.41
2018-09-25T21:16:33.434Z,91.72
2018-09-25T21:17:32.455Z,91.97
2018-09-25T21:18:33.960Z,92.12
2018-09-25T21:19:34.478Z,92.33
2018-09-25T21:20:33.871Z,92.51
2018-09-25T21:21:35.108Z,92.62
2018-09-25T21:22:35.129Z,92.63
2018-09-25T21:23:34.607Z,93.02
2018-09-25T21:24:35.645Z,92.95
2018-09-25T21:25:35.824Z,93.10
2018-09-25T21:26:35.548Z,93.32
2018-09-25T21:27:35.846Z,93.50
2018-09-25T21:28:36.581Z,93.59
2018-09-25T21:29:36.160Z,94.15
2018-09-25T21:30:36.496Z,94.46
2018-09-25T21:31:37.019Z,94.41
2018-09-25T21:32:36.622Z,94.63
2018-09-25T21:33:37.029Z,94.67
2018-09-25T21:34:37.554Z,94.91
2018-09-25T21:35:36.734Z,94.96
2018-09-25T21:36:38.070Z,95.15
2018-09-25T21:37:38.080Z,95.18
2018-09-25T21:38:37.469Z,95.34
2018-09-25T21:39:38.717Z,95.53
2018-09-25T21:40:38.922Z,95.56
2018-09-25T21:41:38.309Z,95.69
2018-09-25T21:42:39.315Z,95.68
2018-09-25T21:43:39.651Z,95.66
2018-09-25T21:44:39.425Z,95.73
2018-09-25T21:45:40.490Z,95.76
2018-09-25T21:46:40.493Z,95.78
2018-09-25T21:47:39.678Z,95.86
2018-09-25T21:48:40.690Z,96.05
2018-09-25T21:49:41.443Z,96.00
2018-09-25T21:50:40.377Z,96.03
2018-09-25T21:51:41.828Z,96.23
2018-09-25T21:52:42.376Z,96.43
2018-09-25T21:53:41.027Z,96.71
2018-09-25T21:54:42.397Z,96.60
2018-09-25T21:55:42.811Z,96.63
2018-09-25T21:56:41.857Z,96.67
2018-09-25T21:57:43.252Z,96.64
2018-09-25T21:58:43.761Z,96.66
2018-09-25T21:59:43.044Z,96.79
2018-09-25T22:00:43.967Z,96.82
2018-09-25T22:01:44.995Z,96.93
2018-09-25T22:02:43.739Z,97.04
2018-09-25T22:03:44.515Z,97.13
2018-09-25T22:04:44.918Z,97.25
2018-09-25T22:05:44.300Z,97.39
2018-09-25T22:06:45.542Z,97.61
2018-09-25T22:07:46.157Z,97.75
2018-09-25T22:08:44.670Z,97.77
2018-09-25T22:10:46.193Z,97.63
2018-09-25T22:11:45.764Z,97.62
2018-09-25T22:12:46.907Z,97.75
2018-09-25T22:13:47.120Z,97.89
2018-09-25T22:14:46.519Z,97.91
2018-09-25T22:15:47.746Z,98.05
2018-09-25T22:16:48.184Z,98.19
2018-09-25T22:17:47.228Z,98.38
2018-09-25T22:18:49.321Z,98.60
2018-09-25T22:19:49.924Z,99.09
2018-09-25T22:20:49.634Z,99.07
2018-09-25T22:21:50.124Z,99.19
2018-09-25T22:22:50.663Z,99.43
2018-09-25T22:23:50.167Z,99.50
2018-09-25T22:24:51.179Z,99.61
2018-09-25T22:25:51.602Z,99.76
2018-09-25T22:26:51.402Z,99.81
2018-09-25T22:27:52.435Z,99.98
2018-09-25T22:28:52.645Z,100.00
2018-09-25T22:29:52.540Z,100.00
2018-09-25T22:30:53.443Z,100.00
2018-09-25T22:31:53.981Z,100.00
2018-09-25T22:32:53.572Z,100.00
2018-09-25T22:33:53.803Z,100.00
2018-09-25T22:34:54.220Z,100.00
2018-09-25T22:35:53.725Z,100.00
2018-09-25T22:36:54.949Z,100.00
2018-09-25T22:37:55.266Z,100.00
2018-09-25T22:38:54.617Z,100.00
2018-09-25T22:39:55.993Z,100.00
2018-09-25T22:40:56.212Z,100.00
2018-09-25T22:41:55.252Z,100.00
2018-09-25T22:42:56.422Z,100.00
2018-09-25T22:44:55.465Z,100.00
2018-09-25T22:45:56.860Z,100.00
2018-09-25T22:46:57.131Z,100.00
2018-09-25T22:47:56.629Z,100.00
2018-09-25T22:48:58.202Z,100.00
2018-09-25T22:49:58.022Z,100.00
2018-09-25T22:50:57.191Z,100.00
2018-09-25T22:51:58.424Z,100.00
2018-09-25T22:52:58.845Z,100.00
2018-09-25T22:53:57.787Z,100.00
2018-09-25T22:54:59.848Z,100.00
2018-09-25T22:55:59.602Z,100.00
2018-09-25T22:56:58.607Z,100.00
2018-09-25T22:58:00.109Z,100.00
2018-09-25T22:58:59.908Z,100.00
2018-09-25T22:59:58.989Z,100.00
2018-09-25T23:01:00.697Z,100.00
2018-09-25T23:02:00.343Z,100.00
2018-09-25T23:02:59.294Z,100.00
2018-09-25T23:04:01.065Z,100.00
2018-09-25T23:05:01.285Z,100.00
2018-09-25T23:06:00.290Z,100.00
2018-09-25T23:07:01.700Z,100.00
2018-09-25T23:08:02.012Z,100.00
2018-09-25T23:09:01.413Z,100.00
2018-09-25T23:10:02.855Z,100.00
2018-09-25T23:11:03.157Z,100.00
2018-09-25T23:12:02.561Z,100.00
2018-09-25T23:13:04.094Z,100.00
2018-09-25T23:14:04.203Z,100.00
2018-09-25T23:15:03.813Z,100.00
2018-09-25T23:16:04.528Z,100.00
2018-09-25T23:17:04.413Z,100.00
2018-09-25T23:18:04.945Z,100.00
2018-09-25T23:19:04.950Z,100.00
2018-09-25T23:20:05.173Z,100.00
2018-09-25T23:21:05.066Z,100.00
2018-09-25T23:22:05.380Z,100.00
2018-09-25T23:23:05.797Z,100.00
2018-09-25T23:24:06.114Z,100.00
2018-09-25T23:25:06.743Z,100.00
2018-09-25T23:26:06.841Z,100.00
2018-09-25T23:27:06.645Z,100.00
2018-09-25T23:28:07.161Z,100.00
2018-09-25T23:29:07.270Z,100.00
2018-09-25T23:30:07.084Z,100.00
2018-09-25T23:31:07.589Z,100.00
2018-09-25T23:33:08.218Z,100.00
2018-09-25T23:34:08.737Z,100.00
2018-09-25T23:35:08.852Z,100.00
2018-09-25T23:36:08.580Z,100.00
2018-09-25T23:37:08.931Z,100.00
2018-09-25T23:38:09.274Z,100.00
2018-09-25T23:39:09.585Z,100.00
2018-09-25T23:40:10.208Z,100.00
2018-09-25T23:41:10.121Z,100.00
2018-09-25T23:42:10.425Z,100.00
2018-09-25T23:43:11.047Z,100.00
2018-09-25T23:44:11.053Z,100.00
2018-09-25T23:45:11.266Z,100.00
2018-09-25T23:46:11.642Z,100.00
2018-09-25T23:47:11.687Z,100.00
2018-09-25T23:48:11.593Z,100.00
2018-09-25T23:49:11.513Z,100.00
2018-09-25T23:50:11.810Z,100.00
2018-09-25T23:51:12.033Z,100.00
2018-09-25T23:52:12.334Z,100.00
2018-09-25T23:53:12.445Z,100.00
2018-09-25T23:54:13.678Z,100.00
2018-09-25T23:55:12.865Z,100.00
2018-09-25T23:56:11.717Z,100.00
2018-09-25T23:57:14.529Z,100.00
2018-09-25T23:58:13.295Z,100.00
2018-09-25T23:59:12.130Z,100.00
